Time;durP1;ratioP1;P1;durP2;ratioP2;P2;SDS_P1;SDS_P2;PMS_P1;PMS_P2;Temp;Humidity;BMP_temperature;BMP_pressure;BME280_temperature;BME280_humidity;BME280_pressure;Samples;Min_cycle;Max_cycle;Signal;HPM_P1;HPM_P2
2021/09/06 00:02:11;;;;;;;13.67;11.07;;;14.40;99.90;;;;;;5055054;28;20194;-92
2021/09/06 00:04:40;;;;;;;15.00;11.77;;;14.40;99.90;;;;;;5054552;28;20186;-93
2021/09/06 00:07:06;;;;;;;13.80;11.70;;;14.40;99.90;;;;;;5038115;28;20219;-93
2021/09/06 00:09:35;;;;;;;12.93;10.47;;;14.40;99.90;;;;;;5035013;28;20233;-92
2021/09/06 00:12:01;;;;;;;11.87;9.70;;;14.30;99.90;;;;;;5033796;28;20199;-93
2021/09/06 00:14:28;;;;;;;11.13;9.93;;;14.30;99.90;;;;;;5037300;28;20207;-91
2021/09/06 00:16:57;;;;;;;12.43;10.80;;;14.30;99.90;;;;;;5054022;28;20194;-91
2021/09/06 00:19:25;;;;;;;14.30;11.57;;;14.20;99.90;;;;;;5053409;28;20206;-91
2021/09/06 00:21:52;;;;;;;12.63;10.73;;;14.20;99.90;;;;;;5053871;28;20284;-91
2021/09/06 00:24:19;;;;;;;12.97;11.40;;;14.30;99.90;;;;;;5054455;28;20266;-92
2021/09/06 00:26:46;;;;;;;11.83;9.90;;;14.20;99.90;;;;;;5053410;28;20221;-93
2021/09/06 00:29:13;;;;;;;11.70;10.23;;;14.20;99.90;;;;;;5054167;28;20252;-92
2021/09/06 00:31:40;;;;;;;13.10;10.57;;;14.30;99.90;;;;;;5053823;28;20210;-91
2021/09/06 00:34:08;;;;;;;13.70;12.13;;;14.20;99.90;;;;;;5053770;28;20787;-94
2021/09/06 00:36:35;;;;;;;12.03;10.53;;;14.20;99.90;;;;;;5054104;28;20201;-92
2021/09/06 00:39:02;;;;;;;12.20;10.07;;;14.20;99.90;;;;;;5053631;28;20202;-93
2021/09/06 00:41:28;;;;;;;13.20;10.37;;;14.20;99.90;;;;;;5054844;28;20202;-91
2021/09/06 00:43:56;;;;;;;13.43;10.70;;;14.20;99.90;;;;;;5053438;28;20217;-92
2021/09/06 00:46:23;;;;;;;10.90;9.73;;;14.20;99.90;;;;;;5053490;28;20206;-91
2021/09/06 00:48:51;;;;;;;12.57;10.70;;;14.10;99.90;;;;;;5053315;28;20214;-92
2021/09/06 00:51:19;;;;;;;14.40;11.10;;;14.10;99.90;;;;;;5050906;28;20206;-92
2021/09/06 00:53:47;;;;;;;14.30;11.83;;;14.10;99.90;;;;;;5050928;28;20602;-90
2021/09/06 00:56:13;;;;;;;13.77;11.57;;;14.10;99.90;;;;;;5053891;28;20547;-92
2021/09/06 00:58:41;;;;;;;16.63;12.43;;;14.10;99.90;;;;;;5053878;28;20204;-89
2021/09/06 01:01:07;;;;;;;14.23;11.13;;;14.00;99.90;;;;;;5053838;28;20217;-92
2021/09/06 01:03:34;;;;;;;13.30;10.97;;;14.10;99.90;;;;;;5054466;28;20653;-91
2021/09/06 01:06:01;;;;;;;12.83;10.60;;;14.00;99.90;;;;;;5054318;28;20209;-91
2021/09/06 01:08:30;;;;;;;13.73;11.07;;;14.00;99.90;;;;;;5054324;28;20224;-92
2021/09/06 01:10:58;;;;;;;12.20;10.20;;;14.00;99.90;;;;;;5054074;28;20768;-92
2021/09/06 01:13:24;;;;;;;14.40;11.37;;;14.00;99.90;;;;;;5054406;28;20201;-91
2021/09/06 01:15:51;;;;;;;12.73;10.23;;;14.00;99.90;;;;;;5054601;28;20209;-90
2021/09/06 01:18:18;;;;;;;11.03;9.83;;;14.00;99.90;;;;;;5054713;28;20206;-90
2021/09/06 01:20:45;;;;;;;13.17;10.37;;;14.00;99.90;;;;;;5054026;28;20205;-91
2021/09/06 01:23:11;;;;;;;11.93;10.37;;;14.00;99.90;;;;;;5055429;28;20645;-92
2021/09/06 01:25:40;;;;;;;12.77;10.53;;;13.90;99.90;;;;;;5055311;28;20210;-92
2021/09/06 01:28:08;;;;;;;13.00;11.13;;;13.90;99.90;;;;;;5055101;28;20212;-90
2021/09/06 01:30:37;;;;;;;12.60;11.07;;;13.90;99.90;;;;;;5054096;28;20622;-92
2021/09/06 01:33:04;;;;;;;12.33;10.17;;;13.90;99.90;;;;;;5066024;28;20209;-92
2021/09/06 01:35:31;;;;;;;14.57;11.63;;;13.80;99.90;;;;;;5071007;28;20265;-90
2021/09/06 01:37:57;;;;;;;13.80;11.00;;;13.80;99.90;;;;;;5061056;28;20213;-91
2021/09/06 01:40:26;;;;;;;12.93;10.70;;;13.80;99.90;;;;;;5058903;28;20201;-92
2021/09/06 01:42:52;;;;;;;11.13;9.93;;;13.80;99.90;;;;;;5058720;28;20280;-91
2021/09/06 01:45:21;;;;;;;11.93;9.70;;;13.70;99.90;;;;;;5057429;28;20700;-92
2021/09/06 01:47:48;;;;;;;12.90;10.37;;;13.70;99.90;;;;;;5052173;28;20202;-90
2021/09/06 01:50:15;;;;;;;12.53;10.20;;;13.70;99.90;;;;;;5051569;28;20229;-91
2021/09/06 01:52:42;;;;;;;12.93;10.47;;;13.60;99.90;;;;;;5051416;28;20210;-90
2021/09/06 01:55:10;;;;;;;14.80;10.83;;;13.60;99.90;;;;;;5052200;28;20202;-90
2021/09/06 01:57:37;;;;;;;15.23;11.83;;;13.60;99.90;;;;;;5052258;28;20224;-91
2021/09/06 02:00:04;;;;;;;15.33;12.00;;;13.60;99.90;;;;;;5052296;28;20202;-91
2021/09/06 02:02:33;;;;;;;12.77;10.37;;;13.60;99.90;;;;;;5051621;28;20205;-91
2021/09/06 02:04:59;;;;;;;12.00;9.97;;;13.60;99.90;;;;;;5051919;28;20636;-91
2021/09/06 02:07:26;;;;;;;12.10;10.00;;;13.60;99.90;;;;;;5051744;28;20213;-90
2021/09/06 02:09:53;;;;;;;12.70;10.23;;;13.50;99.90;;;;;;5051019;28;20221;-91
2021/09/06 02:12:20;;;;;;;12.83;10.10;;;13.50;99.90;;;;;;5051582;28;20214;-91
2021/09/06 02:14:47;;;;;;;13.00;10.30;;;13.50;99.90;;;;;;5051329;28;20194;-91
2021/09/06 02:17:14;;;;;;;13.43;10.37;;;13.50;99.90;;;;;;5051508;28;20220;-91
2021/09/06 02:19:42;;;;;;;13.57;10.97;;;13.50;99.90;;;;;;5048851;28;20206;-90
2021/09/06 02:22:09;;;;;;;16.07;11.00;;;13.50;99.90;;;;;;5034659;28;20526;-89
2021/09/06 02:24:36;;;;;;;11.03;9.30;;;13.40;99.90;;;;;;5029172;28;20203;-89
2021/09/06 02:27:03;;;;;;;10.53;9.03;;;13.40;99.90;;;;;;5030476;28;20744;-92
2021/09/06 02:29:30;;;;;;;10.53;9.10;;;13.40;99.90;;;;;;5034107;28;21185;-90
2021/09/06 02:31:56;;;;;;;14.03;10.40;;;13.40;99.90;;;;;;5049764;28;20206;-90
2021/09/06 02:34:23;;;;;;;11.27;9.53;;;13.30;99.90;;;;;;5050017;28;20206;-91
2021/09/06 02:36:52;;;;;;;12.63;11.00;;;13.30;99.90;;;;;;5048372;28;20202;-90
2021/09/06 02:39:19;;;;;;;10.77;9.20;;;13.30;99.90;;;;;;5037800;28;20717;-91
2021/09/06 02:41:45;;;;;;;12.40;9.63;;;13.30;99.90;;;;;;5034353;28;20543;-91
2021/09/06 02:44:13;;;;;;;12.07;9.50;;;13.30;99.90;;;;;;5051711;28;20190;-89
2021/09/06 02:46:40;;;;;;;13.70;10.63;;;13.20;99.90;;;;;;5051018;28;20190;-89
2021/09/06 02:49:07;;;;;;;11.73;10.23;;;13.30;99.90;;;;;;5050838;28;20669;-89
2021/09/06 02:51:34;;;;;;;12.97;9.97;;;13.20;99.90;;;;;;5047992;28;20210;-90
2021/09/06 02:54:02;;;;;;;12.43;10.20;;;13.20;99.90;;;;;;5031309;28;20203;-91
2021/09/06 02:56:29;;;;;;;13.50;10.80;;;13.20;99.90;;;;;;5031549;28;20206;-92
2021/09/06 02:58:55;;;;;;;11.97;10.27;;;13.10;99.90;;;;;;5040218;28;20205;-90
2021/09/06 03:01:22;;;;;;;15.33;11.37;;;13.10;99.90;;;;;;5051309;28;20197;-89
2021/09/06 03:03:49;;;;;;;13.33;11.20;;;13.10;99.90;;;;;;5014141;28;20210;-90
2021/09/06 03:06:16;;;;;;;13.30;11.10;;;13.10;99.90;;;;;;5031158;28;20195;-89
2021/09/06 03:08:43;;;;;;;13.03;9.83;;;13.10;99.90;;;;;;5048081;28;20215;-90
2021/09/06 03:11:11;;;;;;;12.20;10.50;;;13.10;99.90;;;;;;5051541;28;20248;-90
2021/09/06 03:13:38;;;;;;;13.00;10.20;;;13.10;99.90;;;;;;5047580;28;20245;-89
2021/09/06 03:16:05;;;;;;;12.57;10.03;;;13.00;99.90;;;;;;5031570;28;20206;-89
2021/09/06 03:18:32;;;;;;;13.37;10.53;;;13.00;99.90;;;;;;5033087;28;20207;-90
2021/09/06 03:20:59;;;;;;;12.93;10.27;;;13.00;99.90;;;;;;5048714;28;20728;-90
2021/09/06 03:23:26;;;;;;;11.30;10.10;;;13.00;99.90;;;;;;5048271;28;20252;-89
2021/09/06 03:25:53;;;;;;;13.00;10.07;;;12.90;99.90;;;;;;5049729;28;20198;-89
2021/09/06 03:28:21;;;;;;;13.40;10.33;;;12.90;99.90;;;;;;5050687;28;20900;-89
2021/09/06 03:30:48;;;;;;;13.97;11.20;;;12.90;99.90;;;;;;5050448;28;20236;-86
2021/09/06 03:33:14;;;;;;;13.27;10.37;;;12.90;99.90;;;;;;5050580;28;20300;-89
2021/09/06 03:35:42;;;;;;;12.07;10.07;;;12.90;99.90;;;;;;5054887;28;20194;-89
2021/09/06 03:38:09;;;;;;;11.30;9.33;;;12.90;99.90;;;;;;5074791;28;20205;-88
2021/09/06 03:40:36;;;;;;;11.43;9.00;;;12.80;99.90;;;;;;5072489;28;20205;-88
2021/09/06 03:43:03;;;;;;;11.30;9.27;;;12.90;99.90;;;;;;5054601;28;20197;-88
2021/09/06 03:45:32;;;;;;;11.53;9.47;;;12.80;99.90;;;;;;5055093;28;20197;-89
2021/09/06 03:47:59;;;;;;;10.80;8.80;;;12.80;99.90;;;;;;5053995;28;20205;-90
2021/09/06 03:50:26;;;;;;;12.13;9.70;;;12.80;99.90;;;;;;5054636;28;20231;-89
2021/09/06 03:52:53;;;;;;;10.87;9.43;;;12.80;99.90;;;;;;5054355;28;20198;-89
2021/09/06 03:55:20;;;;;;;13.17;9.93;;;12.80;99.90;;;;;;5054174;28;20210;-88
2021/09/06 03:57:47;;;;;;;12.60;9.87;;;12.80;99.90;;;;;;5054075;28;20198;-89
2021/09/06 04:00:14;;;;;;;16.23;11.50;;;12.70;99.90;;;;;;5060847;28;20194;-89
2021/09/06 04:02:42;;;;;;;12.20;10.13;;;12.70;99.90;;;;;;5074448;28;20503;-88
2021/09/06 04:05:10;;;;;;;11.97;9.87;;;12.70;99.90;;;;;;5074724;28;20559;-89
2021/09/06 04:07:37;;;;;;;10.90;9.10;;;12.70;99.90;;;;;;5073320;28;20205;-89
2021/09/06 04:10:05;;;;;;;11.57;8.97;;;12.60;99.90;;;;;;5052961;28;20233;-89
2021/09/06 04:12:32;;;;;;;11.80;9.23;;;12.60;99.90;;;;;;5053898;28;20241;-90
2021/09/06 04:14:59;;;;;;;12.10;9.23;;;12.60;99.90;;;;;;5053856;28;20201;-89
2021/09/06 04:17:26;;;;;;;14.00;10.63;;;12.60;99.90;;;;;;5054003;28;20439;-89
2021/09/06 04:19:54;;;;;;;10.97;9.00;;;12.60;99.90;;;;;;5068276;28;20197;-88
2021/09/06 04:22:21;;;;;;;11.57;9.10;;;12.50;99.90;;;;;;5073690;28;20268;-87
2021/09/06 04:24:48;;;;;;;12.90;9.33;;;12.50;99.90;;;;;;5061947;28;20225;-88
2021/09/06 04:27:15;;;;;;;10.20;8.70;;;12.50;99.90;;;;;;5053991;28;20186;-89
2021/09/06 04:29:42;;;;;;;13.30;10.37;;;12.50;99.90;;;;;;5054464;28;20208;-89
2021/09/06 04:32:09;;;;;;;12.30;9.67;;;12.40;99.90;;;;;;5053782;28;20202;-89
2021/09/06 04:34:36;;;;;;;11.13;9.30;;;12.40;99.90;;;;;;5052926;28;20217;-88
2021/09/06 04:37:07;;;;;;;9.93;8.63;;;12.40;99.90;;;;;;5053215;28;20202;-89
2021/09/06 04:39:34;;;;;;;12.33;9.57;;;12.40;99.90;;;;;;5033412;28;20288;-87
2021/09/06 04:42:00;;;;;;;10.87;8.53;;;12.40;99.90;;;;;;5033707;28;20282;-89
2021/09/06 04:44:27;;;;;;;11.00;8.57;;;12.40;99.90;;;;;;5033604;28;20210;-89
2021/09/06 04:46:54;;;;;;;10.27;8.90;;;12.40;99.90;;;;;;5047917;28;20214;-89
2021/09/06 04:49:21;;;;;;;11.23;9.17;;;12.40;99.90;;;;;;5053555;28;20202;-88
2021/09/06 04:51:47;;;;;;;11.10;8.60;;;12.30;99.90;;;;;;5042587;28;20313;-88
2021/09/06 04:54:17;;;;;;;12.43;9.73;;;12.30;99.90;;;;;;5047981;28;20600;-88
2021/09/06 04:56:44;;;;;;;13.20;9.50;;;12.30;99.90;;;;;;5052999;28;20621;-89
2021/09/06 04:59:11;;;;;;;11.97;9.57;;;12.30;99.90;;;;;;5052818;28;20217;-88
2021/09/06 05:01:38;;;;;;;12.13;8.67;;;12.30;99.90;;;;;;5053051;28;20209;-89
2021/09/06 05:04:05;;;;;;;14.33;10.30;;;12.20;99.90;;;;;;5053033;28;20581;-89
2021/09/06 05:06:32;;;;;;;10.87;9.00;;;12.20;99.90;;;;;;5053161;28;20206;-89
2021/09/06 05:08:59;;;;;;;11.70;8.80;;;12.20;99.90;;;;;;5052508;28;20218;-88
2021/09/06 05:11:30;;;;;;;12.13;9.57;;;12.20;99.90;;;;;;5052599;28;20305;-90
2021/09/06 05:13:57;;;;;;;13.37;10.00;;;12.20;99.90;;;;;;5052841;28;20209;-89
2021/09/06 05:16:24;;;;;;;12.77;9.50;;;12.20;99.90;;;;;;5052751;28;20222;-88
2021/09/06 05:18:50;;;;;;;13.07;9.70;;;12.20;99.90;;;;;;5052521;28;20897;-90
2021/09/06 05:21:17;;;;;;;12.30;9.10;;;12.20;99.90;;;;;;5052871;28;20205;-87
2021/09/06 05:23:44;;;;;;;10.47;8.53;;;12.20;99.90;;;;;;5052476;28;20321;-87
2021/09/06 05:26:11;;;;;;;11.17;8.57;;;12.30;99.90;;;;;;5052627;28;20205;-88
2021/09/06 05:28:39;;;;;;;10.77;8.50;;;12.30;99.90;;;;;;5052477;28;20206;-87
2021/09/06 05:31:08;;;;;;;13.30;9.50;;;12.30;99.90;;;;;;5052463;28;20233;-87
2021/09/06 05:33:35;;;;;;;14.17;9.77;;;12.30;99.90;;;;;;5050975;28;20210;-88
2021/09/06 05:36:02;;;;;;;13.40;9.67;;;12.30;99.90;;;;;;5052460;28;20210;-90
2021/09/06 05:38:32;;;;;;;14.90;11.13;;;12.30;99.90;;;;;;5052196;28;20202;-89
2021/09/06 05:40:59;;;;;;;13.67;10.37;;;12.40;99.90;;;;;;5051952;28;20224;-89
2021/09/06 05:43:25;;;;;;;12.47;9.90;;;12.40;99.90;;;;;;5052300;28;20202;-87
2021/09/06 05:45:54;;;;;;;14.10;10.73;;;12.50;99.90;;;;;;5052103;28;20190;-87
2021/09/06 05:48:20;;;;;;;13.83;10.57;;;12.60;99.90;;;;;;5051828;28;20209;-87
2021/09/06 05:50:47;;;;;;;12.53;10.23;;;12.60;99.90;;;;;;5050034;28;20237;-88
2021/09/06 05:53:15;;;;;;;12.57;10.13;;;12.60;99.90;;;;;;5050048;28;20210;-88
2021/09/06 05:55:42;;;;;;;13.60;10.30;;;12.60;99.90;;;;;;5051244;28;20821;-89
2021/09/06 05:58:09;;;;;;;14.70;10.63;;;12.70;99.90;;;;;;5051364;28;20201;-88
2021/09/06 06:00:36;;;;;;;12.73;9.47;;;12.70;99.90;;;;;;5051848;28;20594;-87
2021/09/06 06:03:04;;;;;;;13.73;10.10;;;12.80;99.90;;;;;;5051640;28;20601;-87
2021/09/06 06:05:31;;;;;;;15.07;10.83;;;12.80;99.90;;;;;;5051900;28;20214;-88
2021/09/06 06:07:58;;;;;;;14.57;11.03;;;12.80;99.90;;;;;;5051232;28;20209;-89
2021/09/06 06:10:25;;;;;;;12.33;10.20;;;12.90;99.90;;;;;;5051266;28;20241;-89
2021/09/06 06:12:51;;;;;;;13.17;10.77;;;12.90;99.90;;;;;;5031732;28;20222;-88
2021/09/06 06:15:19;;;;;;;13.73;11.13;;;13.00;99.90;;;;;;5042476;28;20210;-86
2021/09/06 06:17:45;;;;;;;14.00;11.40;;;13.10;99.90;;;;;;5051668;28;20194;-87
2021/09/06 06:20:14;;;;;;;15.10;11.30;;;13.10;99.90;;;;;;5051857;28;20213;-89
2021/09/06 06:22:41;;;;;;;15.93;12.47;;;13.20;99.90;;;;;;5050594;28;20238;-85
2021/09/06 06:25:09;;;;;;;15.10;12.43;;;13.30;99.90;;;;;;5049499;28;20202;-89
2021/09/06 06:27:36;;;;;;;17.67;13.43;;;13.30;99.90;;;;;;5048075;28;20216;-90
2021/09/06 06:30:03;;;;;;;16.23;12.87;;;13.40;99.90;;;;;;5045401;28;20613;-88
2021/09/06 06:32:29;;;;;;;21.07;14.77;;;13.50;99.90;;;;;;5037809;28;20233;-88
2021/09/06 06:34:56;;;;;;;22.37;15.93;;;13.60;99.90;;;;;;5047735;28;20200;-89
2021/09/06 06:37:24;;;;;;;19.97;15.40;;;13.70;99.90;;;;;;5052433;28;20205;-89
2021/09/06 06:39:51;;;;;;;20.93;16.20;;;13.80;99.90;;;;;;5052390;28;20228;-89
2021/09/06 06:42:18;;;;;;;23.63;17.40;;;13.90;99.90;;;;;;5052765;28;20486;-89
2021/09/06 06:44:45;;;;;;;23.67;16.60;;;14.00;99.90;;;;;;5052431;28;20289;-90
2021/09/06 06:47:12;;;;;;;24.00;18.63;;;14.10;99.90;;;;;;5053152;28;20212;-90
2021/09/06 06:49:38;;;;;;;26.23;18.33;;;14.20;99.90;;;;;;5053408;28;20206;-90
2021/09/06 06:52:06;;;;;;;25.33;18.63;;;14.40;99.90;;;;;;5052621;28;20221;-89
2021/09/06 06:54:34;;;;;;;25.40;19.03;;;14.50;99.90;;;;;;5053566;28;20270;-89
2021/09/06 06:57:01;;;;;;;24.97;19.13;;;14.60;99.90;;;;;;5059456;28;20230;-90
2021/09/06 06:59:28;;;;;;;25.93;19.80;;;14.70;99.90;;;;;;5073243;28;20209;-90
2021/09/06 07:01:54;;;;;;;24.83;19.17;;;14.80;99.90;;;;;;5073750;28;20199;-89
2021/09/06 07:04:21;;;;;;;31.00;23.13;;;14.90;99.90;;;;;;5074406;28;20211;-91
2021/09/06 07:06:48;;;;;;;31.07;21.97;;;15.10;99.90;;;;;;5045077;28;20822;-90
2021/09/06 07:09:15;;;;;;;36.17;23.77;;;15.20;99.90;;;;;;5048308;28;20218;-87
2021/09/06 07:11:43;;;;;;;33.73;24.47;;;15.30;99.90;;;;;;5049721;28;20221;-88
2021/09/06 07:14:10;;;;;;;29.70;21.63;;;15.50;99.90;;;;;;5062901;28;20217;-87
2021/09/06 07:20:12;;;;;;;37.10;25.60;;;15.70;99.90;;;;;;5048099;28;20202;-90
2021/09/06 07:22:39;;;;;;;39.33;26.33;;;15.90;99.90;;;;;;5051303;28;20230;-89
2021/09/06 07:25:07;;;;;;;33.73;25.17;;;16.00;99.90;;;;;;5051602;28;20206;-88
2021/09/06 07:27:36;;;;;;;32.95;24.90;;;16.10;99.90;;;;;;5046311;22;20242;-89
2021/09/06 07:30:04;;;;;;;37.63;25.83;;;16.20;99.90;;;;;;5030930;28;20595;-89
2021/09/06 07:32:30;;;;;;;37.42;25.70;;;16.30;99.90;;;;;;5011856;28;20539;-89
2021/09/06 07:34:57;;;;;;;40.97;27.02;;;16.40;99.90;;;;;;5011166;28;20207;-90
2021/09/06 07:37:24;;;;;;;36.70;25.43;;;16.40;99.90;;;;;;5011816;28;20207;-87
2021/09/06 07:39:51;;;;;;;34.40;25.13;;;16.50;99.90;;;;;;5010285;28;20214;-87
2021/09/06 07:42:18;;;;;;;36.25;24.30;;;16.50;99.90;;;;;;5010765;28;20607;-87
2021/09/06 07:44:46;;;;;;;41.43;27.70;;;16.60;99.90;;;;;;5009974;28;20211;-88
2021/09/06 07:47:14;;;;;;;35.20;26.10;;;16.70;99.90;;;;;;5010789;28;20203;-89
2021/09/06 07:49:41;;;;;;;29.67;22.63;;;16.70;99.90;;;;;;5010815;28;20215;-86
2021/09/06 07:52:08;;;;;;;32.33;23.37;;;16.80;99.90;;;;;;5022540;28;20302;-88
2021/09/06 07:54:35;;;;;;;34.22;24.60;;;16.90;99.90;;;;;;5029360;28;20203;-87
2021/09/06 07:57:02;;;;;;;35.97;25.80;;;16.90;99.90;;;;;;5029393;28;20206;-89
2021/09/06 07:59:29;;;;;;;33.90;24.42;;;17.10;99.90;;;;;;5038793;28;20206;-86
2021/09/06 08:01:58;;;;;;;34.60;24.17;;;17.20;99.90;;;;;;5049196;28;20205;-87
2021/09/06 08:04:26;;;;;;;32.45;22.15;;;17.40;99.90;;;;;;5049748;28;20198;-87
2021/09/06 08:06:53;;;;;;;32.90;22.70;;;17.50;99.90;;;;;;5049257;28;20198;-89
2021/09/06 08:09:20;;;;;;;35.33;24.70;;;17.70;99.90;;;;;;5012179;28;20239;-86
2021/09/06 08:11:48;;;;;;;32.90;23.05;;;17.90;99.90;;;;;;5009504;28;20516;-87
2021/09/06 08:14:15;;;;;;;34.33;23.23;;;18.10;99.90;;;;;;5048784;23;20316;-86
2021/09/06 08:16:42;;;;;;;29.85;24.02;;;18.40;99.90;;;;;;5069171;28;20213;-89
2021/09/06 08:19:10;;;;;;;30.52;25.70;;;18.70;99.90;;;;;;5069385;28;20196;-87
2021/09/06 08:21:37;;;;;;;25.55;20.35;;;19.00;99.90;;;;;;5068803;28;20208;-85
2021/09/06 08:24:04;;;;;;;32.28;22.40;;;19.30;99.90;;;;;;5068809;28;20213;-86
2021/09/06 08:26:31;;;;;;;24.98;20.73;;;19.60;99.90;;;;;;5073149;28;20197;-88
2021/09/06 08:29:00;;;;;;;23.42;20.10;;;19.90;99.90;;;;;;5072101;28;20197;-87
2021/09/06 08:31:30;;;;;;;26.23;18.08;;;20.20;99.90;;;;;;5073200;28;20213;-88
2021/09/06 08:33:57;;;;;;;21.38;15.77;;;20.40;99.90;;;;;;5072578;28;20652;-88
2021/09/06 08:36:26;;;;;;;20.23;16.80;;;20.70;99.90;;;;;;5072756;28;20296;-88
2021/09/06 08:38:53;;;;;;;23.45;16.88;;;20.90;99.90;;;;;;5072534;28;20213;-88
2021/09/06 08:41:20;;;;;;;19.08;16.13;;;21.10;99.90;;;;;;5073347;28;20204;-86
2021/09/06 08:43:47;;;;;;;18.55;15.38;;;21.30;99.90;;;;;;5072633;28;20205;-87
2021/09/06 08:46:14;;;;;;;25.55;18.85;;;21.50;99.90;;;;;;5072840;28;20209;-87
2021/09/06 08:48:41;;;;;;;26.30;19.33;;;21.50;99.90;;;;;;5089812;28;20208;-85
2021/09/06 08:51:08;;;;;;;18.67;14.70;;;21.60;99.90;;;;;;5092419;28;20588;-87
2021/09/06 08:53:36;;;;;;;17.83;14.60;;;21.80;99.90;;;;;;5093539;28;20616;-86
2021/09/06 08:56:03;;;;;;;18.65;14.23;;;21.90;99.90;;;;;;5092122;28;20673;-87
2021/09/06 08:58:30;;;;;;;20.80;14.73;;;22.20;99.90;;;;;;5091375;28;20189;-87
2021/09/06 09:00:58;;;;;;;22.60;16.20;;;22.30;99.90;;;;;;5089885;28;20209;-87
2021/09/06 09:03:25;;;;;;;16.50;14.05;;;22.20;99.90;;;;;;5091715;28;20199;-88
2021/09/06 09:06:00;;;;;;;17.58;13.75;;;22.30;99.90;;;;;;5091178;28;20683;-86
2021/09/06 09:08:27;;;;;;;23.23;17.30;;;22.50;99.90;;;;;;5089742;28;20550;-88
2021/09/06 09:11:03;;;;;;;23.98;17.25;;;22.50;99.90;;;;;;5070554;28;20200;-87
2021/09/06 09:13:31;;;;;;;17.65;14.07;;;22.60;99.90;;;;;;5068067;28;20228;-84
2021/09/06 09:15:58;;;;;;;18.52;15.35;;;22.90;99.90;;;;;;5067181;28;20666;-85
2021/09/06 09:18:27;;;;;;;21.50;17.13;;;23.10;99.90;;;;;;5068241;28;20290;-86
2021/09/06 09:21:01;;;;;;;20.77;17.30;;;23.20;99.90;;;;;;5049206;28;20219;-87
2021/09/06 09:23:43;;;;;;;16.00;13.57;;;23.30;99.90;;;;;;5066935;28;20204;-87
2021/09/06 09:26:12;;;;;;;16.75;14.93;;;23.50;99.90;;;;;;5069666;28;20516;-87
2021/09/06 09:28:42;;;;;;;15.77;14.07;;;23.60;99.90;;;;;;5069031;28;20205;-86
2021/09/06 09:31:10;;;;;;;20.02;15.52;;;23.60;99.90;;;;;;5069431;28;20681;-86
2021/09/06 09:33:45;;;;;;;16.00;12.23;;;23.40;99.90;;;;;;5066621;28;20209;-86
2021/09/06 09:36:12;;;;;;;13.57;11.13;;;23.30;99.90;;;;;;5069874;28;20211;-86
2021/09/06 09:38:40;;;;;;;12.57;10.70;;;23.20;99.90;;;;;;5066228;28;20278;-88
2021/09/06 09:41:17;;;;;;;16.15;13.32;;;23.10;99.90;;;;;;5050578;28;20293;-89
2021/09/06 09:43:44;;;;;;;11.45;9.98;;;22.90;99.90;;;;;;5050673;28;20247;-85
2021/09/06 09:46:11;;;;;;;15.48;10.88;;;22.90;99.90;;;;;;5050702;28;20617;-87
2021/09/06 09:48:38;;;;;;;14.32;11.40;;;23.20;99.90;;;;;;5060495;28;20209;-86
2021/09/06 09:51:05;;;;;;;13.38;10.20;;;23.40;99.90;;;;;;5070158;28;20202;-85
2021/09/06 09:53:33;;;;;;;13.18;11.25;;;23.70;99.90;;;;;;5069416;28;20605;-86
2021/09/06 09:55:59;;;;;;;12.38;9.80;;;23.90;99.90;;;;;;5061679;28;20702;-88
2021/09/06 09:58:28;;;;;;;13.30;10.38;;;24.10;99.90;;;;;;5050648;28;20202;-85
2021/09/06 10:00:56;;;;;;;15.45;12.95;;;24.30;99.90;;;;;;5049700;28;20214;-84
2021/09/06 10:03:25;;;;;;;15.43;11.60;;;24.40;99.90;;;;;;5060235;22;20229;-86
2021/09/06 10:05:53;;;;;;;15.80;11.93;;;24.50;99.90;;;;;;5068991;28;20217;-88
2021/09/06 10:08:21;;;;;;;15.98;12.07;;;24.40;99.90;;;;;;5068235;28;20228;-87
2021/09/06 10:10:49;;;;;;;13.43;11.00;;;24.50;99.90;;;;;;5070004;28;20235;-86
2021/09/06 10:13:17;;;;;;;12.55;9.60;;;24.50;99.90;;;;;;5069285;28;20240;-90
2021/09/06 10:15:58;;;;;;;13.48;10.55;;;24.50;99.90;;;;;;5069094;28;20320;-86
2021/09/06 10:18:25;;;;;;;11.40;9.70;;;24.50;99.90;;;;;;5055477;28;20221;-88
2021/09/06 10:20:54;;;;;;;17.70;12.43;;;24.70;99.90;;;;;;5050605;28;20214;-86
2021/09/06 10:23:21;;;;;;;17.55;11.98;;;24.80;99.90;;;;;;5058775;28;20209;-85
2021/09/06 10:25:49;;;;;;;10.30;9.25;;;25.00;99.90;;;;;;5069601;28;20196;-87
2021/09/06 10:28:17;;;;;;;15.75;11.40;;;25.10;99.90;;;;;;5069732;28;20209;-87
2021/09/06 10:30:47;;;;;;;14.13;10.45;;;25.40;99.90;;;;;;5067805;28;20201;-90
2021/09/06 10:33:26;;;;;;;11.52;9.30;;;25.50;99.90;;;;;;5068617;28;20573;-85
2021/09/06 10:36:07;;;;;;;10.07;8.93;;;25.60;99.90;;;;;;5068427;28;20212;-88
2021/09/06 10:38:42;;;;;;;15.38;12.73;;;25.70;99.90;;;;;;5069471;28;20201;-86
2021/09/06 10:41:12;;;;;;;16.67;12.52;;;25.20;99.90;;;;;;5069300;28;20200;-86
2021/09/06 10:43:44;;;;;;;16.40;12.55;;;24.90;99.90;;;;;;5068197;28;20288;-87
2021/09/06 10:46:13;;;;;;;15.50;12.30;;;25.00;99.90;;;;;;5069683;28;20205;-87
2021/09/06 10:48:40;;;;;;;14.07;10.65;;;25.20;99.90;;;;;;5068793;28;20213;-88
2021/09/06 10:51:09;;;;;;;17.02;14.77;;;25.40;99.90;;;;;;5069936;28;20292;-87
2021/09/06 10:53:36;;;;;;;12.95;10.73;;;25.50;99.90;;;;;;5068668;28;20231;-90
2021/09/06 10:56:05;;;;;;;13.20;10.07;;;25.70;99.90;;;;;;5069059;28;20209;-89
2021/09/06 10:58:31;;;;;;;21.30;14.07;;;25.90;99.90;;;;;;5069799;28;20201;-90
2021/09/06 11:01:01;;;;;;;16.70;13.27;;;25.80;99.90;;;;;;5069577;28;20228;-90
2021/09/06 11:03:36;;;;;;;13.35;11.93;;;25.80;99.90;;;;;;5069926;28;20237;-92
2021/09/06 11:06:04;;;;;;;12.85;9.57;;;26.00;99.90;;;;;;5074397;28;20204;-91
2021/09/06 11:08:33;;;;;;;17.02;11.05;;;26.20;99.90;;;;;;5077433;28;20201;-91
2021/09/06 11:11:03;;;;;;;14.23;9.43;;;26.20;99.90;;;;;;5065005;28;20221;-91
2021/09/06 11:13:34;;;;;;;12.80;11.15;;;26.20;99.90;;;;;;5056961;28;20570;-91
2021/09/06 11:16:01;;;;;;;14.93;11.07;;;26.30;99.90;;;;;;5050821;28;20585;-89
2021/09/06 11:18:31;;;;;;;14.65;11.48;;;26.40;99.90;;;;;;5053327;28;20209;-89
2021/09/06 11:21:00;;;;;;;10.55;8.90;;;26.40;99.90;;;;;;5055483;28;20274;-87
2021/09/06 11:23:33;;;;;;;17.60;13.25;;;26.50;99.90;;;;;;5058877;28;20194;-93
2021/09/06 11:26:00;;;;;;;13.75;11.38;;;26.20;99.90;;;;;;5066633;28;20239;-93
2021/09/06 11:28:28;;;;;;;18.25;14.30;;;26.10;99.90;;;;;;5062807;28;20233;-92
2021/09/06 11:30:55;;;;;;;16.77;13.43;;;26.00;99.90;;;;;;5052712;28;20317;-94
2021/09/06 11:33:22;;;;;;;22.30;16.77;;;25.80;99.90;;;;;;5074984;28;20221;-92
2021/09/06 11:35:51;;;;;;;18.08;14.00;;;25.70;99.90;;;;;;5071831;28;20201;-90
2021/09/06 11:38:20;;;;;;;21.20;13.70;;;25.50;99.90;;;;;;5069241;28;20597;-90
2021/09/06 11:40:55;;;;;;;17.60;14.60;;;25.60;99.90;;;;;;5066287;28;20207;-91
2021/09/06 11:43:23;;;;;;;19.80;15.40;;;25.70;99.90;;;;;;5069844;28;20695;-92
2021/09/06 11:45:58;;;;;;;19.67;14.48;;;25.80;99.90;;;;;;5070397;28;20209;-89
2021/09/06 11:48:24;;;;;;;14.65;12.05;;;25.80;99.90;;;;;;5072502;28;20543;-91
2021/09/06 11:50:52;;;;;;;15.20;13.40;;;25.80;99.90;;;;;;5069906;28;20189;-90
2021/09/06 11:53:21;;;;;;;14.48;11.48;;;25.80;99.90;;;;;;5070453;28;20640;-92
2021/09/06 11:55:53;;;;;;;20.02;13.73;;;25.70;99.90;;;;;;5071281;28;20739;-92
2021/09/06 11:58:24;;;;;;;21.55;16.13;;;25.70;99.90;;;;;;5074980;28;20216;-92
2021/09/06 12:00:52;;;;;;;22.50;14.98;;;25.60;99.90;;;;;;5058217;28;20589;-91
2021/09/06 12:03:25;;;;;;;23.17;16.60;;;25.50;99.90;;;;;;5075990;28;20196;-90
2021/09/06 12:05:56;;;;;;;22.88;17.00;;;25.40;99.90;;;;;;5056088;28;20225;-89
2021/09/06 12:08:25;;;;;;;26.40;18.30;;;25.20;99.90;;;;;;5056530;28;20209;-94
2021/09/06 12:10:52;;;;;;;22.27;16.35;;;25.10;99.90;;;;;;5057708;28;20202;-96
2021/09/06 12:13:21;;;;;;;20.05;15.82;;;25.00;99.90;;;;;;5075377;28;20240;-90
2021/09/06 12:15:56;;;;;;;21.42;17.75;;;25.00;99.90;;;;;;5077030;28;20213;-88
2021/09/06 12:18:35;;;;;;;17.95;15.25;;;25.10;99.90;;;;;;5077715;28;20192;-92
2021/09/06 12:21:03;;;;;;;19.05;15.50;;;25.20;99.90;;;;;;5076016;28;20263;-92
2021/09/06 12:23:33;;;;;;;17.02;13.85;;;25.10;99.90;;;;;;5076510;28;20232;-94
2021/09/06 12:26:00;;;;;;;19.95;16.33;;;25.30;99.90;;;;;;5087077;28;20201;-92
2021/09/06 12:28:27;;;;;;;22.38;16.02;;;25.40;99.90;;;;;;5087035;28;20232;-90
2021/09/06 12:31:00;;;;;;;16.90;13.75;;;25.40;99.90;;;;;;5078842;28;20196;-92
2021/09/06 12:33:27;;;;;;;17.63;13.98;;;25.30;99.90;;;;;;5078689;28;20228;-95
2021/09/06 12:35:55;;;;;;;18.65;14.73;;;25.40;99.90;;;;;;5076996;28;20197;-94